Time;durP1;ratioP1;P1;durP2;ratioP2;P2;SDS_P1;SDS_P2;PMS_P1;PMS_P2;Temp;Humidity;BMP_temperature;BMP_pressure;BME280_temperature;BME280_humidity;BME280_pressure;Samples;Min_cycle;Max_cycle;Signal;HPM_P1;HPM_P2
2020/12/02 00:01:56;;;;;;;197.80;97.33;;;;;;;;;;1782795;80;21168;-73
2020/12/02 00:04:24;;;;;;;196.05;90.55;;;;;;;;;;1782612;80;21227;-73
2020/12/02 00:06:50;;;;;;;187.75;88.35;;;;;;;;;;1752549;80;21950;-73
2020/12/02 00:09:19;;;;;;;191.05;88.12;;;;;;;;;;1782681;80;21145;-72
2020/12/02 00:11:47;;;;;;;189.13;87.27;;;;;;;;;;1782866;80;21187;-73
2020/12/02 00:14:25;;;;;;;179.63;83.37;;;;;;;;;;1782876;80;21195;-73
2020/12/02 00:16:55;;;;;;;177.87;82.35;;;;;;;;;;1782858;80;21363;-73
2020/12/02 00:19:20;;;;;;;189.82;85.80;;;;;;;;;;1782525;80;22063;-73
2020/12/02 00:22:05;;;;;;;192.57;85.38;;;;;;;;;;1752978;80;21196;-72
2020/12/02 00:24:33;;;;;;;187.68;88.60;;;;;;;;;;1782698;80;21144;-72
2020/12/02 00:27:15;;;;;;;177.15;82.85;;;;;;;;;;1782727;80;21257;-72
2020/12/02 00:29:42;;;;;;;167.98;77.55;;;;;;;;;;1782896;80;21183;-72
2020/12/02 00:32:29;;;;;;;180.35;83.27;;;;;;;;;;1752370;80;21889;-72
2020/12/02 00:35:03;;;;;;;181.47;84.70;;;;;;;;;;1782995;80;21149;-72
2020/12/02 00:37:30;;;;;;;174.20;80.25;;;;;;;;;;1782894;80;21572;-72
2020/12/02 00:39:57;;;;;;;172.62;80.62;;;;;;;;;;1782689;80;21623;-72
2020/12/02 00:42:24;;;;;;;167.53;79.50;;;;;;;;;;1782937;80;21136;-73
2020/12/02 00:44:50;;;;;;;178.47;80.70;;;;;;;;;;1782701;80;22828;-72
2020/12/02 00:47:20;;;;;;;157.20;75.05;;;;;;;;;;1752325;80;21159;-73
2020/12/02 00:49:47;;;;;;;162.92;75.87;;;;;;;;;;1781805;80;21211;-72
2020/12/02 00:52:17;;;;;;;165.22;76.35;;;;;;;;;;1782864;80;21603;-72
2020/12/02 00:54:55;;;;;;;163.12;74.65;;;;;;;;;;1782812;80;21856;-73
2020/12/02 00:57:33;;;;;;;154.82;74.37;;;;;;;;;;1781818;80;21152;-72
2020/12/02 01:00:00;;;;;;;148.93;71.20;;;;;;;;;;1782705;80;21204;-72
2020/12/02 01:02:38;;;;;;;156.70;71.87;;;;;;;;;;1782771;80;21684;-72
2020/12/02 01:05:12;;;;;;;152.97;71.37;;;;;;;;;;1785532;80;21223;-73
2020/12/02 01:07:44;;;;;;;158.22;76.25;;;;;;;;;;1788574;80;21196;-72
2020/12/02 01:10:11;;;;;;;149.38;73.33;;;;;;;;;;1788847;80;22794;-72
2020/12/02 01:12:38;;;;;;;146.57;70.28;;;;;;;;;;1788596;80;21216;-72
2020/12/02 01:15:08;;;;;;;149.40;73.60;;;;;;;;;;1788643;80;21696;-73
2020/12/02 01:17:34;;;;;;;154.65;73.42;;;;;;;;;;1788637;80;21642;-73
2020/12/02 01:20:03;;;;;;;159.12;75.15;;;;;;;;;;1788663;80;21223;-72
2020/12/02 01:22:33;;;;;;;137.62;67.20;;;;;;;;;;1788662;80;22757;-72
2020/12/02 01:25:06;;;;;;;132.65;64.25;;;;;;;;;;1788562;80;21211;-72
2020/12/02 01:27:45;;;;;;;142.55;66.47;;;;;;;;;;1788499;80;21192;-73
2020/12/02 01:30:13;;;;;;;130.67;66.12;;;;;;;;;;1788732;80;21606;-72
2020/12/02 01:32:42;;;;;;;144.45;69.00;;;;;;;;;;1788599;80;21204;-72
2020/12/02 01:35:10;;;;;;;149.32;70.70;;;;;;;;;;1788751;80;22045;-73
2020/12/02 01:37:37;;;;;;;130.78;64.53;;;;;;;;;;1788683;80;21220;-72
2020/12/02 01:40:20;;;;;;;147.93;68.45;;;;;;;;;;1788734;80;21192;-72
2020/12/02 01:42:49;;;;;;;146.18;69.55;;;;;;;;;;1788598;80;21618;-72
2020/12/02 01:45:19;;;;;;;117.60;58.45;;;;;;;;;;1788538;80;21672;-72
2020/12/02 01:48:07;;;;;;;127.07;58.13;;;;;;;;;;1788315;80;22732;-72
2020/12/02 01:50:40;;;;;;;123.15;55.80;;;;;;;;;;1788554;80;21237;-72
2020/12/02 01:53:10;;;;;;;116.70;57.38;;;;;;;;;;1788961;80;21203;-72
2020/12/02 01:55:53;;;;;;;118.85;57.50;;;;;;;;;;1788480;80;21195;-72
2020/12/02 01:58:26;;;;;;;111.68;51.65;;;;;;;;;;1788341;80;21160;-72
2020/12/02 02:00:56;;;;;;;111.03;55.05;;;;;;;;;;1787424;80;27887;-72
2020/12/02 02:03:22;;;;;;;121.55;57.17;;;;;;;;;;1788672;80;21148;-72
2020/12/02 02:08:34;;;;;;;109.60;54.83;;;;;;;;;;1686188;85;21161;-72
2020/12/02 02:11:08;;;;;;;120.60;56.68;;;;;;;;;;1687182;85;21733;-73
2020/12/02 02:14:16;;;;;;;114.88;54.13;;;;;;;;;;1687079;85;21880;-72
2020/12/02 02:16:44;;;;;;;106.07;53.10;;;;;;;;;;1687009;85;21578;-72
2020/12/02 02:19:20;;;;;;;112.52;54.98;;;;;;;;;;1687189;85;21600;-72
2020/12/02 02:21:50;;;;;;;100.10;51.40;;;;;;;;;;1687105;85;21704;-72
2020/12/02 02:24:26;;;;;;;106.65;52.80;;;;;;;;;;1888894;76;23224;-72
2020/12/02 02:26:54;;;;;;;112.17;54.45;;;;;;;;;;1857029;77;21150;-72
2020/12/02 02:29:30;;;;;;;109.67;53.68;;;;;;;;;;1857138;77;21826;-72
2020/12/02 02:32:03;;;;;;;111.72;53.78;;;;;;;;;;1856720;77;21178;-73
2020/12/02 02:34:38;;;;;;;113.55;55.08;;;;;;;;;;1856910;77;21174;-72
2020/12/02 02:37:22;;;;;;;108.87;54.38;;;;;;;;;;1854907;77;21138;-72
2020/12/02 02:39:48;;;;;;;103.90;54.00;;;;;;;;;;1857030;77;21138;-72
2020/12/02 02:42:42;;;;;;;106.15;54.48;;;;;;;;;;1857189;77;22827;-72
2020/12/02 02:45:11;;;;;;;106.27;52.03;;;;;;;;;;1857181;77;21150;-72
2020/12/02 02:47:39;;;;;;;112.90;53.58;;;;;;;;;;1856915;77;21173;-71
2020/12/02 02:50:11;;;;;;;111.17;52.58;;;;;;;;;;1857004;77;21162;-72
2020/12/02 02:52:41;;;;;;;118.22;54.93;;;;;;;;;;1857163;76;21162;-72
2020/12/02 02:55:11;;;;;;;105.35;52.25;;;;;;;;;;1857168;77;22605;-72
2020/12/02 02:57:38;;;;;;;106.63;51.70;;;;;;;;;;1856885;76;21182;-72
2020/12/02 03:00:07;;;;;;;103.22;53.00;;;;;;;;;;1856863;77;21099;-72
2020/12/02 03:02:34;;;;;;;105.50;53.42;;;;;;;;;;1856710;77;21130;-72
2020/12/02 03:05:01;;;;;;;112.83;52.90;;;;;;;;;;1857043;77;21115;-72
2020/12/02 03:07:27;;;;;;;107.07;50.03;;;;;;;;;;1857066;77;21872;-72
2020/12/02 03:09:54;;;;;;;104.00;48.73;;;;;;;;;;1857027;77;21217;-72
2020/12/02 03:12:21;;;;;;;107.58;50.05;;;;;;;;;;1857024;77;21156;-72
2020/12/02 03:14:47;;;;;;;99.58;49.85;;;;;;;;;;1856948;77;21158;-72
2020/12/02 03:17:16;;;;;;;106.60;49.33;;;;;;;;;;1857004;77;21158;-72
2020/12/02 03:20:03;;;;;;;101.95;48.50;;;;;;;;;;1880416;75;21916;-72
2020/12/02 03:22:30;;;;;;;99.17;47.75;;;;;;;;;;1890947;75;21649;-72
2020/12/02 03:24:57;;;;;;;85.67;43.98;;;;;;;;;;1891822;75;21625;-72
2020/12/02 03:27:24;;;;;;;97.40;47.20;;;;;;;;;;1891828;75;21143;-72
2020/12/02 03:29:52;;;;;;;93.97;46.48;;;;;;;;;;1891851;75;21116;-72
2020/12/02 03:32:25;;;;;;;104.03;49.13;;;;;;;;;;1888211;75;21030;-72
2020/12/02 03:34:52;;;;;;;87.88;45.88;;;;;;;;;;1849423;77;21124;-72
2020/12/02 03:37:18;;;;;;;90.60;46.60;;;;;;;;;;1809303;79;21214;-72
2020/12/02 03:39:45;;;;;;;92.72;46.13;;;;;;;;;;1809755;78;21674;-72
2020/12/02 03:42:11;;;;;;;91.40;45.43;;;;;;;;;;1796286;79;21133;-71
2020/12/02 03:44:38;;;;;;;92.40;46.90;;;;;;;;;;1815877;79;21890;-72
2020/12/02 03:47:09;;;;;;;92.55;47.23;;;;;;;;;;1815757;79;21209;-72
2020/12/02 03:49:40;;;;;;;91.32;47.08;;;;;;;;;;1849729;77;21581;-72
2020/12/02 03:52:06;;;;;;;91.87;47.85;;;;;;;;;;1838277;77;21187;-72
2020/12/02 03:54:33;;;;;;;92.42;47.58;;;;;;;;;;1849251;77;21180;-72
2020/12/02 03:56:59;;;;;;;98.20;48.95;;;;;;;;;;1809291;79;22878;-72
2020/12/02 03:59:29;;;;;;;96.47;47.93;;;;;;;;;;1809904;79;21120;-72
2020/12/02 04:01:59;;;;;;;105.12;51.20;;;;;;;;;;1796273;79;21204;-73
2020/12/02 04:04:25;;;;;;;102.17;51.20;;;;;;;;;;1815913;78;21190;-72
2020/12/02 04:06:55;;;;;;;107.90;51.95;;;;;;;;;;1815828;79;21146;-72
2020/12/02 04:09:20;;;;;;;105.87;51.28;;;;;;;;;;1815788;79;22943;-72
2020/12/02 04:11:48;;;;;;;102.42;52.50;;;;;;;;;;1815775;79;21523;-72
2020/12/02 04:14:15;;;;;;;101.18;51.88;;;;;;;;;;1815939;79;21186;-72
2020/12/02 04:16:42;;;;;;;104.53;49.77;;;;;;;;;;1807173;79;21754;-71
2020/12/02 04:19:09;;;;;;;108.63;51.70;;;;;;;;;;1765046;81;21178;-72
2020/12/02 04:21:36;;;;;;;115.77;54.50;;;;;;;;;;1756105;80;21892;-72
2020/12/02 04:24:04;;;;;;;114.67;52.88;;;;;;;;;;1788133;80;21664;-72
2020/12/02 04:26:30;;;;;;;103.60;51.08;;;;;;;;;;1789492;80;21593;-72
2020/12/02 04:28:57;;;;;;;105.03;50.40;;;;;;;;;;1789494;80;21174;-73
2020/12/02 04:31:24;;;;;;;111.30;51.48;;;;;;;;;;1789670;80;21466;-72
2020/12/02 04:33:53;;;;;;;105.70;54.00;;;;;;;;;;1789503;78;22770;-72
2020/12/02 04:36:20;;;;;;;102.35;50.70;;;;;;;;;;1789574;80;21167;-72
2020/12/02 04:38:47;;;;;;;103.35;50.52;;;;;;;;;;1789498;80;21167;-72
2020/12/02 04:41:14;;;;;;;106.78;51.02;;;;;;;;;;1789642;80;21123;-72
2020/12/02 04:43:42;;;;;;;113.83;53.20;;;;;;;;;;1789457;80;21534;-72
2020/12/02 04:46:14;;;;;;;106.12;53.08;;;;;;;;;;1789632;80;22713;-72
2020/12/02 04:48:42;;;;;;;115.45;53.33;;;;;;;;;;1789181;78;21577;-72
2020/12/02 04:51:13;;;;;;;111.47;52.95;;;;;;;;;;1789562;80;21170;-72
2020/12/02 04:53:40;;;;;;;112.90;52.90;;;;;;;;;;1788504;80;21206;-72
2020/12/02 04:56:06;;;;;;;107.67;53.00;;;;;;;;;;1789611;78;21170;-72
2020/12/02 04:58:35;;;;;;;100.42;50.03;;;;;;;;;;1737876;80;21890;-72
2020/12/02 05:01:28;;;;;;;103.32;50.73;;;;;;;;;;1812019;77;21192;-72
2020/12/02 05:04:04;;;;;;;113.20;50.80;;;;;;;;;;1850054;77;21629;-73
2020/12/02 05:06:39;;;;;;;117.35;56.23;;;;;;;;;;1849764;77;21638;-71
2020/12/02 05:09:16;;;;;;;126.85;59.15;;;;;;;;;;1849678;77;21152;-71
2020/12/02 05:11:59;;;;;;;118.85;56.35;;;;;;;;;;1849664;77;22097;-71
2020/12/02 05:14:43;;;;;;;125.07;59.83;;;;;;;;;;1849914;77;21061;-71
2020/12/02 05:17:25;;;;;;;120.42;58.17;;;;;;;;;;1849685;77;21148;-72
2020/12/02 05:20:13;;;;;;;129.72;61.48;;;;;;;;;;1849568;77;21167;-71
2020/12/02 05:22:41;;;;;;;123.55;57.83;;;;;;;;;;1849835;77;21211;-74
2020/12/02 05:25:26;;;;;;;130.43;56.92;;;;;;;;;;1792789;77;22039;-76
2020/12/02 05:28:13;;;;;;;121.17;59.25;;;;;;;;;;1790233;79;21175;-75
2020/12/02 05:30:40;;;;;;;117.05;54.95;;;;;;;;;;1777307;78;21179;-75
2020/12/02 05:33:17;;;;;;;118.20;55.50;;;;;;;;;;1800039;79;21644;-75
2020/12/02 05:35:50;;;;;;;112.92;55.15;;;;;;;;;;1800094;79;21649;-77
2020/12/02 05:38:32;;;;;;;114.12;54.75;;;;;;;;;;1800277;79;21894;-77
2020/12/02 05:40:58;;;;;;;111.08;53.58;;;;;;;;;;1772970;79;22280;-76
2020/12/02 05:43:45;;;;;;;119.30;58.30;;;;;;;;;;1800166;79;21147;-72
2020/12/02 05:46:23;;;;;;;123.90;63.13;;;;;;;;;;1773929;79;21120;-73
2020/12/02 05:48:52;;;;;;;139.22;70.47;;;;;;;;;;1799953;79;21152;-72
2020/12/02 05:51:19;;;;;;;145.70;74.65;;;;;;;;;;1773590;79;22872;-72
2020/12/02 05:53:58;;;;;;;138.18;71.77;;;;;;;;;;1799980;79;21190;-74
2020/12/02 05:56:28;;;;;;;142.07;71.30;;;;;;;;;;1800104;79;21174;-72
2020/12/02 05:58:54;;;;;;;129.45;68.67;;;;;;;;;;1799985;79;21186;-72
2020/12/02 06:01:21;;;;;;;131.40;65.95;;;;;;;;;;1800067;79;21128;-71
2020/12/02 06:03:53;;;;;;;133.27;67.67;;;;;;;;;;1799977;79;22789;-71
2020/12/02 06:06:20;;;;;;;136.57;66.77;;;;;;;;;;1799193;79;21151;-71
2020/12/02 06:08:50;;;;;;;137.35;65.70;;;;;;;;;;1800021;79;21638;-71
2020/12/02 06:11:20;;;;;;;123.38;63.40;;;;;;;;;;1800009;79;21179;-71
2020/12/02 06:14:02;;;;;;;119.22;61.15;;;;;;;;;;1800094;79;21597;-72
2020/12/02 06:16:37;;;;;;;126.78;62.62;;;;;;;;;;1768086;79;22911;-72
2020/12/02 06:19:19;;;;;;;121.07;66.53;;;;;;;;;;1790896;79;21573;-72
2020/12/02 06:21:48;;;;;;;133.03;64.65;;;;;;;;;;1794147;79;21190;-71
2020/12/02 06:24:34;;;;;;;110.08;58.90;;;;;;;;;;1769409;79;21128;-71
2020/12/02 06:27:03;;;;;;;106.92;55.78;;;;;;;;;;1791407;80;21144;-71
2020/12/02 06:29:38;;;;;;;109.85;53.87;;;;;;;;;;1787451;80;21870;-73
2020/12/02 06:32:27;;;;;;;109.35;53.25;;;;;;;;;;1790872;80;21674;-73
2020/12/02 06:35:16;;;;;;;97.02;49.15;;;;;;;;;;1763192;80;21100;-71
2020/12/02 06:37:42;;;;;;;86.45;46.08;;;;;;;;;;1791178;80;21194;-71
2020/12/02 06:40:12;;;;;;;90.45;47.60;;;;;;;;;;1791095;80;21121;-71
2020/12/02 06:42:43;;;;;;;90.25;46.28;;;;;;;;;;1791120;80;21932;-71
2020/12/02 06:45:27;;;;;;;85.75;46.42;;;;;;;;;;1790693;78;21695;-71
2020/12/02 06:48:00;;;;;;;94.13;47.83;;;;;;;;;;1791037;80;21218;-72
2020/12/02 06:50:30;;;;;;;91.37;46.53;;;;;;;;;;1762826;80;29226;-72
2020/12/02 06:53:17;;;;;;;85.72;45.40;;;;;;;;;;1791012;80;21277;-72
2020/12/02 06:56:00;;;;;;;85.72;45.58;;;;;;;;;;1791093;80;21890;-71
2020/12/02 06:58:28;;;;;;;88.65;44.10;;;;;;;;;;1791102;80;21171;-71
2020/12/02 07:00:57;;;;;;;89.62;46.98;;;;;;;;;;1791243;80;21203;-71
2020/12/02 07:03:27;;;;;;;92.95;48.15;;;;;;;;;;1790579;79;21140;-71
2020/12/02 07:06:14;;;;;;;91.92;49.55;;;;;;;;;;1791116;80;21135;-71
2020/12/02 07:08:41;;;;;;;92.80;48.87;;;;;;;;;;1791260;80;21952;-71
2020/12/02 07:11:15;;;;;;;95.20;48.02;;;;;;;;;;1791377;80;21219;-71
2020/12/02 07:13:44;;;;;;;98.22;48.25;;;;;;;;;;1793744;79;21586;-71
2020/12/02 07:16:13;;;;;;;93.42;48.78;;;;;;;;;;1796242;78;21558;-71
2020/12/02 07:18:40;;;;;;;94.52;47.35;;;;;;;;;;1793643;78;21288;-70
2020/12/02 07:21:19;;;;;;;93.25;49.10;;;;;;;;;;1779986;77;21744;-73
2020/12/02 07:23:46;;;;;;;98.20;49.03;;;;;;;;;;1812479;77;21210;-73
2020/12/02 07:26:15;;;;;;;92.50;47.80;;;;;;;;;;1783215;79;21140;-73
2020/12/02 07:28:41;;;;;;;96.75;48.20;;;;;;;;;;1813701;79;21180;-74
2020/12/02 07:31:18;;;;;;;92.55;48.13;;;;;;;;;;1793882;79;21666;-73
2020/12/02 07:34:00;;;;;;;94.07;47.73;;;;;;;;;;1766488;80;21357;-72
2020/12/02 07:36:29;;;;;;;91.70;48.38;;;;;;;;;;1766230;80;21219;-75
2020/12/02 07:39:05;;;;;;;87.22;45.23;;;;;;;;;;1798022;79;21124;-73
2020/12/02 07:41:31;;;;;;;90.20;47.60;;;;;;;;;;1792960;78;21207;-72
2020/12/02 07:43:57;;;;;;;89.67;44.80;;;;;;;;;;1789192;79;21680;-71
2020/12/02 07:46:27;;;;;;;88.70;44.83;;;;;;;;;;1766605;79;21939;-73
2020/12/02 07:49:00;;;;;;;96.05;45.85;;;;;;;;;;1789252;79;21143;-73
2020/12/02 07:51:31;;;;;;;98.95;47.95;;;;;;;;;;1766183;79;21077;-72
2020/12/02 07:54:13;;;;;;;89.28;45.63;;;;;;;;;;1767482;79;21355;-72
2020/12/02 07:56:40;;;;;;;91.00;46.20;;;;;;;;;;1801408;79;21264;-73
2020/12/02 07:59:21;;;;;;;89.62;46.30;;;;;;;;;;1786861;78;22140;-72
2020/12/02 08:02:00;;;;;;;92.37;47.05;;;;;;;;;;1754254;78;21136;-73
2020/12/02 08:04:39;;;;;;;94.45;48.30;;;;;;;;;;1765562;79;21134;-72
2020/12/02 08:07:10;;;;;;;83.27;42.93;;;;;;;;;;1801040;79;21173;-71
2020/12/02 08:09:42;;;;;;;85.92;44.73;;;;;;;;;;1801373;78;21207;-72
2020/12/02 08:12:26;;;;;;;88.80;43.25;;;;;;;;;;1800623;79;22983;-72
2020/12/02 08:15:00;;;;;;;;;;;;;;;;;;1770270;80;21203;-72
2020/12/02 08:17:28;;;;;;;86.00;42.70;;;;;;;;;;1768660;79;20550;-72
2020/12/02 08:19:58;;;;;;;87.97;42.73;;;;;;;;;;1793944;78;21260;-73
2020/12/02 08:22:49;;;;;;;86.17;43.83;;;;;;;;;;1770154;79;21186;-73
2020/12/02 08:25:25;;;;;;;87.80;45.40;;;;;;;;;;1774802;80;21887;-74
2020/12/02 08:30:34;;;;;;;82.78;43.95;;;;;;;;;;1866379;75;24483;-73
2020/12/02 08:33:05;;;;;;;76.53;39.73;;;;;;;;;;1829934;77;21673;-73
2020/12/02 08:35:35;;;;;;;81.55;42.65;;;;;;;;;;1829773;77;21886;-73
2020/12/02 08:38:02;;;;;;;86.15;42.80;;;;;;;;;;1829880;77;21185;-73
2020/12/02 08:40:32;;;;;;;91.00;44.55;;;;;;;;;;1828964;77;21139;-73
2020/12/02 08:43:18;;;;;;;91.30;44.00;;;;;;;;;;1827975;78;21128;-72
2020/12/02 08:46:01;;;;;;;88.58;43.02;;;;;;;;;;1836506;77;21131;-73
2020/12/02 08:48:22;;;;;;;87.45;45.88;;;;;;;;;;1830912;76;22867;-73
2020/12/02 08:50:49;;;;;;;83.58;44.25;;;;;;;;;;1808911;77;21192;-72
2020/12/02 08:53:27;;;;;;;76.87;42.00;;;;;;;;;;1828410;77;21226;-73
2020/12/02 08:55:56;;;;;;;82.25;43.60;;;;;;;;;;1829841;77;21918;-74
2020/12/02 08:58:24;;;;;;;86.57;46.05;;;;;;;;;;1832030;77;21117;-73
2020/12/02 09:00:50;;;;;;;86.17;45.17;;;;;;;;;;1829162;77;21911;-71
2020/12/02 09:03:17;;;;;;;84.80;44.80;;;;;;;;;;1832347;77;21626;-73
2020/12/02 09:05:43;;;;;;;81.20;42.38;;;;;;;;;;1829743;77;21168;-72
2020/12/02 09:08:10;;;;;;;83.45;43.38;;;;;;;;;;1830940;77;21187;-72
2020/12/02 09:10:38;;;;;;;85.17;44.58;;;;;;;;;;1829676;77;21371;-72
2020/12/02 09:13:05;;;;;;;85.77;44.23;;;;;;;;;;1830082;77;22756;-72
2020/12/02 09:15:31;;;;;;;88.67;47.53;;;;;;;;;;1831896;77;21238;-72
2020/12/02 09:17:58;;;;;;;80.77;44.48;;;;;;;;;;1831408;77;21183;-72
2020/12/02 09:20:26;;;;;;;88.90;47.55;;;;;;;;;;1829595;76;21175;-75
2020/12/02 09:22:53;;;;;;;85.35;45.12;;;;;;;;;;1831920;77;21621;-74
2020/12/02 09:25:20;;;;;;;87.45;45.10;;;;;;;;;;1830341;77;22051;-73
2020/12/02 09:27:49;;;;;;;78.87;43.90;;;;;;;;;;1829368;77;21215;-73
2020/12/02 09:30:16;;;;;;;87.67;45.35;;;;;;;;;;1829441;76;21195;-73
2020/12/02 09:32:42;;;;;;;83.07;45.38;;;;;;;;;;1829082;77;21681;-73
2020/12/02 09:35:09;;;;;;;81.85;44.63;;;;;;;;;;1829735;77;21224;-73
2020/12/02 09:37:36;;;;;;;81.60;45.15;;;;;;;;;;1828732;77;21971;-73
2020/12/02 09:40:07;;;;;;;80.65;44.00;;;;;;;;;;1829059;77;21208;-73
2020/12/02 09:43:06;;;;;;;71.17;39.33;;;;;;;;;;1829680;77;21243;-73
2020/12/02 09:45:59;;;;;;;82.55;42.50;;;;;;;;;;1829257;77;21610;-73
2020/12/02 09:48:27;;;;;;;86.55;43.35;;;;;;;;;;1834108;77;21240;-72
2020/12/02 09:50:54;;;;;;;82.15;44.13;;;;;;;;;;1828588;77;21884;-73
2020/12/02 09:53:23;;;;;;;71.70;40.88;;;;;;;;;;1832767;77;21210;-72
2020/12/02 09:55:50;;;;;;;75.08;41.80;;;;;;;;;;1831390;77;21166;-74
2020/12/02 09:58:20;;;;;;;79.10;42.30;;;;;;;;;;1833553;77;22179;-72
2020/12/02 10:00:47;;;;;;;72.27;38.90;;;;;;;;;;1829841;77;21244;-73
2020/12/02 10:03:38;;;;;;;72.58;38.45;;;;;;;;;;1828892;77;22328;-72
2020/12/02 10:06:09;;;;;;;82.12;46.42;;;;;;;;;;1829267;77;21216;-72
2020/12/02 10:08:39;;;;;;;74.77;42.20;;;;;;;;;;1829682;77;21188;-72
2020/12/02 10:11:18;;;;;;;71.12;43.65;;;;;;;;;;1826922;77;21209;-73
2020/12/02 10:13:52;;;;;;;74.25;43.87;;;;;;;;;;1827758;77;21648;-72
2020/12/02 10:16:39;;;;;;;82.45;43.52;;;;;;;;;;1831063;77;22261;-73
2020/12/02 10:19:35;;;;;;;76.17;43.90;;;;;;;;;;1828298;77;21242;-73
2020/12/02 10:22:21;;;;;;;76.05;41.18;;;;;;;;;;1828871;77;21179;-73
2020/12/02 10:25:08;;;;;;;61.35;37.23;;;;;;;;;;1826356;78;21187;-73
2020/12/02 10:27:50;;;;;;;63.40;37.23;;;;;;;;;;1828621;77;21647;-80
2020/12/02 10:30:20;;;;;;;62.60;38.20;;;;;;;;;;1833563;76;22048;-74
2020/12/02 10:33:14;;;;;;;62.40;35.40;;;;;;;;;;1836173;76;21642;-74
2020/12/02 10:35:45;;;;;;;60.78;34.75;;;;;;;;;;1840465;76;21224;-73
2020/12/02 10:38:31;;;;;;;64.00;34.27;;;;;;;;;;1837400;76;22233;-73
2020/12/02 10:41:26;;;;;;;62.73;36.03;;;;;;;;;;1843189;76;21157;-72
2020/12/02 10:44:14;;;;;;;62.50;35.20;;;;;;;;;;1763329;76;21810;-74
2020/12/02 10:46:44;;;;;;;51.65;32.15;;;;;;;;;;1864473;76;21123;-75
2020/12/02 10:49:20;;;;;;;53.50;32.08;;;;;;;;;;1864579;76;21175;-73
2020/12/02 10:51:50;;;;;;;54.42;33.98;;;;;;;;;;1864249;76;21194;-73
2020/12/02 10:54:27;;;;;;;56.23;33.08;;;;;;;;;;1864853;76;21206;-73
2020/12/02 10:56:48;;;;;;;57.30;33.75;;;;;;;;;;1861252;76;21904;-74
2020/12/02 10:59:14;;;;;;;56.28;33.15;;;;;;;;;;1836073;76;21223;-72
2020/12/02 11:01:41;;;;;;;57.33;32.00;;;;;;;;;;1864574;76;21179;-72
2020/12/02 11:04:08;;;;;;;54.83;33.50;;;;;;;;;;1864837;76;21570;-73
2020/12/02 11:06:38;;;;;;;55.75;33.45;;;;;;;;;;1864982;76;21205;-73
2020/12/02 11:09:17;;;;;;;59.95;34.75;;;;;;;;;;1864874;76;21715;-78
2020/12/02 11:12:05;;;;;;;59.00;33.55;;;;;;;;;;1864597;76;21207;-75
2020/12/02 11:15:00;;;;;;;56.55;33.38;;;;;;;;;;1864777;76;21127;-73
2020/12/02 11:17:54;;;;;;;54.58;32.30;;;;;;;;;;1865003;76;21214;-73
2020/12/02 11:20:46;;;;;;;53.85;34.08;;;;;;;;;;1861074;76;21641;-74
2020/12/02 11:23:37;;;;;;;57.95;32.65;;;;;;;;;;1830850;78;21877;-74
2020/12/02 11:26:10;;;;;;;59.18;32.98;;;;;;;;;;1830682;78;21128;-73
2020/12/02 11:28:43;;;;;;;61.58;36.08;;;;;;;;;;1829255;77;21242;-76
2020/12/02 11:31:23;;;;;;;60.35;34.00;;;;;;;;;;1830726;78;21510;-74
2020/12/02 11:34:13;;;;;;;64.15;36.73;;;;;;;;;;1827649;78;21218;-75
2020/12/02 11:36:46;;;;;;;63.33;35.33;;;;;;;;;;1830670;76;21180;-73
2020/12/02 11:39:31;;;;;;;67.60;37.40;;;;;;;;;;1829838;78;21222;-72
2020/12/02 11:42:07;;;;;;;52.65;31.62;;;;;;;;;;1831153;76;21139;-73
2020/12/02 11:44:58;;;;;;;55.55;32.48;;;;;;;;;;1830512;77;21185;-73
2020/12/02 11:47:53;;;;;;;56.42;35.20;;;;;;;;;;1841648;76;21463;-74
2020/12/02 11:50:25;;;;;;;58.73;31.33;;;;;;;;;;1848087;76;22889;-75
2020/12/02 11:53:21;;;;;;;61.08;34.88;;;;;;;;;;1849861;76;21198;-74
2020/12/02 11:55:48;;;;;;;61.98;33.88;;;;;;;;;;1854507;76;21210;-75
2020/12/02 11:58:15;;;;;;;61.15;37.00;;;;;;;;;;1846215;76;21167;-73
2020/12/02 12:00:41;;;;;;;66.22;37.15;;;;;;;;;;1840145;76;21645;-72
2020/12/02 12:03:36;;;;;;;69.95;39.90;;;;;;;;;;1835364;76;21892;-72
2020/12/02 12:06:14;;;;;;;62.25;34.92;;;;;;;;;;1864635;76;21143;-72
2020/12/02 12:09:03;;;;;;;61.68;37.33;;;;;;;;;;1864822;76;21190;-72
2020/12/02 12:11:35;;;;;;;64.85;37.95;;;;;;;;;;1844774;76;21185;-72
2020/12/02 12:14:23;;;;;;;58.68;33.98;;;;;;;;;;1833872;77;21127;-72
2020/12/02 12:17:01;;;;;;;69.95;37.83;;;;;;;;;;1851722;76;21960;-71
2020/12/02 12:19:40;;;;;;;65.60;39.00;;;;;;;;;;1839066;76;21146;-71
2020/12/02 12:22:23;;;;;;;65.50;38.90;;;;;;;;;;1859254;76;21154;-71
2020/12/02 12:24:49;;;;;;;62.25;35.10;;;;;;;;;;1844005;76;21129;-71
2020/12/02 12:27:19;;;;;;;58.70;33.88;;;;;;;;;;1837665;76;21221;-71
2020/12/02 12:29:46;;;;;;;63.25;33.53;;;;;;;;;;1836194;76;22688;-71
2020/12/02 12:32:49;;;;;;;61.80;34.67;;;;;;;;;;1831891;77;21452;-72
2020/12/02 12:35:25;;;;;;;63.28;37.20;;;;;;;;;;1830649;77;21167;-72
2020/12/02 12:38:14;;;;;;;64.03;37.23;;;;;;;;;;1826194;77;21245;-72
2020/12/02 12:40:43;;;;;;;64.15;35.78;;;;;;;;;;1832687;77;21179;-71
2020/12/02 12:43:19;;;;;;;65.12;37.70;;;;;;;;;;1830592;77;23032;-71
2020/12/02 12:45:51;;;;;;;67.37;37.05;;;;;;;;;;1829670;76;21176;-72
2020/12/02 12:48:19;;;;;;;66.82;36.28;;;;;;;;;;1835121;76;21135;-74
2020/12/02 12:50:50;;;;;;;62.40;36.35;;;;;;;;;;1834493;77;21203;-75
2020/12/02 12:53:17;;;;;;;60.70;34.45;;;;;;;;;;1830578;77;21200;-73
2020/12/02 12:55:44;;;;;;;62.78;33.88;;;;;;;;;;1810315;77;21884;-73
2020/12/02 12:58:14;;;;;;;63.92;36.88;;;;;;;;;;1829308;77;21214;-74
2020/12/02 13:00:41;;;;;;;59.95;36.08;;;;;;;;;;1830169;77;21159;-73
2020/12/02 13:03:14;;;;;;;66.72;39.73;;;;;;;;;;1831540;77;21195;-74
2020/12/02 13:05:59;;;;;;;68.67;40.30;;;;;;;;;;1831056;77;21668;-74
2020/12/02 13:08:36;;;;;;;69.58;38.58;;;;;;;;;;1829940;77;22079;-73
2020/12/02 13:11:05;;;;;;;66.75;37.95;;;;;;;;;;1830584;77;21285;-73
2020/12/02 13:13:44;;;;;;;69.77;38.58;;;;;;;;;;1832813;77;21129;-73
2020/12/02 13:16:14;;;;;;;72.30;41.42;;;;;;;;;;1809784;77;21812;-73
2020/12/02 13:18:49;;;;;;;73.45;41.23;;;;;;;;;;1831659;76;21613;-73
2020/12/02 13:21:37;;;;;;;68.78;38.95;;;;;;;;;;1829126;77;21883;-73
2020/12/02 13:24:27;;;;;;;71.25;38.42;;;;;;;;;;1795120;78;21207;-73
2020/12/02 13:26:57;;;;;;;66.53;39.35;;;;;;;;;;1761809;80;21245;-73
2020/12/02 13:29:39;;;;;;;62.38;35.73;;;;;;;;;;1762727;80;21191;-74
2020/12/02 13:32:29;;;;;;;61.75;36.23;;;;;;;;;;1762067;80;21713;-72
2020/12/02 13:34:56;;;;;;;64.92;37.55;;;;;;;;;;1790171;79;21965;-72
2020/12/02 13:37:23;;;;;;;60.55;35.17;;;;;;;;;;1788768;79;21151;-73
2020/12/02 13:39:49;;;;;;;55.43;34.50;;;;;;;;;;1760764;80;21223;-73
2020/12/02 13:42:16;;;;;;;56.80;34.30;;;;;;;;;;1761438;80;21501;-74
2020/12/02 13:45:00;;;;;;;57.65;33.53;;;;;;;;;;1773652;80;21678;-71
2020/12/02 13:47:27;;;;;;;57.78;33.75;;;;;;;;;;1776638;79;22135;-71
2020/12/02 13:49:54;;;;;;;56.48;33.05;;;;;;;;;;1782493;80;21165;-71
2020/12/02 13:52:30;;;;;;;59.40;35.17;;;;;;;;;;1782151;80;21207;-74
2020/12/02 13:55:06;;;;;;;59.65;34.85;;;;;;;;;;1792395;78;21620;-73
2020/12/02 13:58:02;;;;;;;56.45;32.88;;;;;;;;;;1781661;80;21121;-73
2020/12/02 14:00:39;;;;;;;56.48;31.57;;;;;;;;;;1781048;79;21898;-73
2020/12/02 14:03:24;;;;;;;54.08;32.08;;;;;;;;;;1780794;79;21248;-72
2020/12/02 14:06:11;;;;;;;54.60;33.83;;;;;;;;;;1781590;79;21196;-76
2020/12/02 14:08:38;;;;;;;55.17;32.53;;;;;;;;;;1782235;80;21189;-74
2020/12/02 14:11:05;;;;;;;55.55;34.35;;;;;;;;;;1781667;80;21676;-71
2020/12/02 14:13:31;;;;;;;53.75;32.20;;;;;;;;;;1782854;80;22831;-71
2020/12/02 14:16:00;;;;;;;56.13;34.15;;;;;;;;;;1783014;80;21620;-71
2020/12/02 14:18:33;;;;;;;57.60;33.60;;;;;;;;;;1784358;78;21213;-72
2020/12/02 14:20:55;;;;;;;56.42;34.38;;;;;;;;;;1771840;80;21220;-72
2020/12/02 14:23:22;;;;;;;57.33;33.53;;;;;;;;;;1779227;80;21195;-72
2020/12/02 14:25:49;;;;;;;53.70;33.40;;;;;;;;;;1766165;80;22870;-71
2020/12/02 14:28:16;;;;;;;52.67;33.33;;;;;;;;;;1782099;79;21226;-72
2020/12/02 14:30:43;;;;;;;56.95;35.17;;;;;;;;;;1799552;78;21112;-72
2020/12/02 14:33:13;;;;;;;63.75;35.52;;;;;;;;;;1796124;78;21302;-72
2020/12/02 14:35:40;;;;;;;58.30;35.85;;;;;;;;;;1798468;78;21479;-72
2020/12/02 14:38:10;;;;;;;61.40;35.58;;;;;;;;;;1799149;78;21233;-73
2020/12/02 14:40:37;;;;;;;63.95;37.13;;;;;;;;;;1795891;78;21317;-71
2020/12/02 14:43:07;;;;;;;69.45;38.45;;;;;;;;;;1798206;78;21730;-73
2020/12/02 14:45:34;;;;;;;68.60;38.35;;;;;;;;;;1800627;78;21144;-71
2020/12/02 14:48:01;;;;;;;67.92;39.95;;;;;;;;;;1800635;78;21246;-71
2020/12/02 14:50:30;;;;;;;76.42;41.50;;;;;;;;;;1800163;78;22046;-73
2020/12/02 14:52:56;;;;;;;79.70;43.90;;;;;;;;;;1798684;78;21235;-71